Snoqualmie Pass
Snoqualmie Pass
Latest observation 08/31 19:00 PDT
| Time (PDT) | Temp °F 3760' | Temp °F 3770' | Temp °F 3010' | RH % 3010' | Min mph 3760' | Spd mph 3760' | Gust mph 3760' | Dir ° 3760' | Pcp1 in 3010' | PcpSum in 3010' | 24Sno in 3010' | SnoHt in 3010' | Pres millibar 3010' |
|---|---|---|---|---|---|---|---|---|---|---|---|---|---|
| 08/31 19:00 | 69 | 72 | 66 | 62 | 0 | 5 | 12 | 193 | 0.00 | 0.00 | 0.0 | 0.0 | 1011 |
| 08/31 18:00 | 69 | 74 | 72 | 48 | 0 | 3 | 8 | 230 | 0.00 | 0.00 | 0.0 | 0.0 | 1011 |
| 08/31 17:00 | 70 | 75 | 78 | 28 | 2 | 7 | 13 | 145 | 0.00 | 0.00 | 0.0 | 0.0 | 1012 |
| 08/31 16:00 | 69 | 73 | 78 | 27 | 4 | 9 | 14 | 139 | 0.00 | 0.00 | 0.0 | 0.0 | 1012 |
| 08/31 15:00 | 68 | 74 | 78 | 28 | 4 | 8 | 14 | 132 | 0.00 | 0.00 | 0.0 | 0.0 | 1012 |
| 08/31 14:00 | 66 | 73 | 76 | 32 | 4 | 10 | 18 | 128 | 0.00 | 0.00 | 0.0 | 0.0 | 1013 |
| 08/31 13:00 | 63 | 68 | 72 | 34 | 4 | 10 | 17 | 118 | 0.00 | 0.00 | 0.0 | 0.0 | 1014 |
| 08/31 12:00 | 57 | 64 | 67 | 46 | 7 | 11 | 17 | 101 | 0.00 | 0.00 | 0.0 | 0.0 | 1015 |
| 08/31 11:00 | 53 | 57 | 61 | 67 | 5 | 9 | 12 | 98 | 0.00 | 0.00 | 0.0 | 0.0 | 1016 |
| 08/31 10:00 | 49 | 52 | 56 | 70 | 9 | 12 | 17 | 101 | 0.00 | 0.00 | 0.0 | 0.0 | 1016 |
| 08/31 09:00 | 49 | 49 | 50 | 90 | 9 | 13 | 18 | 112 | 0.00 | 0.00 | 0.0 | 0.0 | 1017 |
| 08/31 08:00 | 47 | 48 | 45 | 98 | 11 | 14 | 18 | 98 | 0.00 | 0.00 | 0.0 | 0.0 | 1017 |
| 08/31 07:00 | 48 | 46 | 44 | 98 | 9 | 14 | 18 | 98 | 0.00 | 0.00 | 0.0 | 0.0 | 1016 |
| 08/31 06:00 | 50 | 46 | 44 | 98 | 9 | 11 | 14 | 111 | 0.00 | 0.00 | 0.0 | 0.0 | 1016 |
| 08/31 05:00 | 50 | 47 | 44 | 98 | 7 | 10 | 13 | 104 | 0.00 | 0.00 | 0.0 | 0.0 | 1017 |
| 08/31 04:00 | 50 | 49 | 44 | 97 | 4 | 7 | 9 | 92 | 0.00 | 0.00 | 0.0 | 0.0 | 1016 |
| 08/31 03:00 | 50 | 49 | 45 | 97 | 0 | 3 | 5 | 99 | 0.00 | 0.00 | 0.0 | 0.0 | 1017 |
| 08/31 02:00 | 50 | 49 | 45 | 96 | 0 | 1 | 3 | 128 | 0.00 | 0.00 | 0.0 | 0.0 | 1017 |
| 08/31 01:00 | 49 | 48 | 45 | 96 | 0 | 0 | 0 | 0 | 0.00 | 0.00 | 0.0 | 0.0 | 1018 |
| 08/31 00:00 | 49 | 49 | 46 | 95 | 0 | 0 | 2 | 225 | 0.00 | 0.00 | 0.0 | 0.0 | 1018 |
| 08/30 23:00 | 49 | 49 | 47 | 93 | 2 | 5 | 7 | 212 | 0.00 | 0.00 | 0.0 | 0.0 | 1019 |
| 08/30 22:00 | 50 | 49 | 49 | 91 | 3 | 5 | 9 | 234 | 0.00 | 0.00 | 0.0 | 0.0 | 1019 |
| 08/30 21:00 | 51 | 50 | 51 | 88 | 2 | 8 | 14 | 268 | 0.00 | 0.00 | 0.0 | 0.0 | 1019 |
| 08/30 20:00 | 51 | 52 | 54 | 80 | 4 | 8 | 13 | 261 | 0.00 | 0.00 | 0.0 | 0.0 | 1019 |

